sensor_id;sensor_type;location;lat;lon;timestamp;P1;durP1;ratioP1;P2;durP2;ratioP2
45039;SDS011;30778;53.574;7.770;2022-08-20T00:00:46;10.40;;;7.65;;
45039;SDS011;30778;53.574;7.770;2022-08-20T00:03:17;12.27;;;8.73;;
45039;SDS011;30778;53.574;7.770;2022-08-20T00:05:54;16.30;;;8.90;;
45039;SDS011;30778;53.574;7.770;2022-08-20T00:08:22;13.25;;;8.73;;
45039;SDS011;30778;53.574;7.770;2022-08-20T00:10:49;13.30;;;8.82;;
45039;SDS011;30778;53.574;7.770;2022-08-20T00:13:17;15.38;;;8.77;;
45039;SDS011;30778;53.574;7.770;2022-08-20T00:15:46;15.15;;;9.43;;
45039;SDS011;30778;53.574;7.770;2022-08-20T00:18:12;15.05;;;10.35;;
45039;SDS011;30778;53.574;7.770;2022-08-20T00:20:40;15.85;;;9.93;;
45039;SDS011;30778;53.574;7.770;2022-08-20T00:23:08;14.95;;;10.30;;
45039;SDS011;30778;53.574;7.770;2022-08-20T00:25:34;14.50;;;9.73;;
45039;SDS011;30778;53.574;7.770;2022-08-20T00:27:59;13.15;;;10.48;;
45039;SDS011;30778;53.574;7.770;2022-08-20T00:30:28;14.13;;;9.98;;
45039;SDS011;30778;53.574;7.770;2022-08-20T00:32:56;12.98;;;10.15;;
45039;SDS011;30778;53.574;7.770;2022-08-20T00:35:30;15.00;;;9.18;;
45039;SDS011;30778;53.574;7.770;2022-08-20T00:37:57;14.20;;;9.40;;
45039;SDS011;30778;53.574;7.770;2022-08-20T00:40:24;14.77;;;9.85;;
45039;SDS011;30778;53.574;7.770;2022-08-20T00:42:55;14.40;;;9.10;;
45039;SDS011;30778;53.574;7.770;2022-08-20T00:45:22;17.05;;;9.27;;
45039;SDS011;30778;53.574;7.770;2022-08-20T00:47:50;8.90;;;7.97;;
45039;SDS011;30778;53.574;7.770;2022-08-20T00:50:19;14.10;;;9.52;;
45039;SDS011;30778;53.574;7.770;2022-08-20T00:52:59;11.63;;;9.48;;
45039;SDS011;30778;53.574;7.770;2022-08-20T00:55:26;14.63;;;8.75;;
45039;SDS011;30778;53.574;7.770;2022-08-20T00:57:55;11.48;;;8.45;;
45039;SDS011;30778;53.574;7.770;2022-08-20T01:00:25;9.63;;;7.22;;
45039;SDS011;30778;53.574;7.770;2022-08-20T01:02:53;7.38;;;5.97;;
45039;SDS011;30778;53.574;7.770;2022-08-20T01:05:19;9.52;;;7.53;;
45039;SDS011;30778;53.574;7.770;2022-08-20T01:07:47;11.65;;;8.23;;
45039;SDS011;30778;53.574;7.770;2022-08-20T01:10:16;11.77;;;8.13;;
45039;SDS011;30778;53.574;7.770;2022-08-20T01:12:45;10.73;;;7.38;;
45039;SDS011;30778;53.574;7.770;2022-08-20T01:15:13;11.93;;;7.65;;
45039;SDS011;30778;53.574;7.770;2022-08-20T01:17:42;11.38;;;7.15;;
45039;SDS011;30778;53.574;7.770;2022-08-20T01:20:22;14.82;;;7.78;;
45039;SDS011;30778;53.574;7.770;2022-08-20T01:22:59;11.13;;;8.52;;
45039;SDS011;30778;53.574;7.770;2022-08-20T01:26:07;11.50;;;7.57;;
45039;SDS011;30778;53.574;7.770;2022-08-20T01:28:37;8.48;;;7.55;;
45039;SDS011;30778;53.574;7.770;2022-08-20T01:31:09;11.75;;;7.45;;
45039;SDS011;30778;53.574;7.770;2022-08-20T01:33:36;9.07;;;6.72;;
45039;SDS011;30778;53.574;7.770;2022-08-20T01:36:03;11.27;;;8.80;;
45039;SDS011;30778;53.574;7.770;2022-08-20T01:38:29;9.02;;;7.00;;
45039;SDS011;30778;53.574;7.770;2022-08-20T01:41:03;7.40;;;6.03;;
45039;SDS011;30778;53.574;7.770;2022-08-20T01:43:31;9.75;;;6.80;;
45039;SDS011;30778;53.574;7.770;2022-08-20T01:45:58;8.57;;;6.60;;
45039;SDS011;30778;53.574;7.770;2022-08-20T01:48:23;9.20;;;6.65;;
45039;SDS011;30778;53.574;7.770;2022-08-20T01:50:55;7.47;;;6.20;;
45039;SDS011;30778;53.574;7.770;2022-08-20T01:53:34;9.98;;;7.30;;
45039;SDS011;30778;53.574;7.770;2022-08-20T01:56:05;11.70;;;7.05;;
45039;SDS011;30778;53.574;7.770;2022-08-20T01:58:34;9.82;;;6.20;;
45039;SDS011;30778;53.574;7.770;2022-08-20T02:01:02;8.98;;;7.57;;
45039;SDS011;30778;53.574;7.770;2022-08-20T02:03:28;10.93;;;6.65;;
45039;SDS011;30778;53.574;7.770;2022-08-20T02:05:54;6.93;;;5.60;;
45039;SDS011;30778;53.574;7.770;2022-08-20T02:08:20;9.98;;;6.57;;
45039;SDS011;30778;53.574;7.770;2022-08-20T02:10:46;10.18;;;6.50;;
45039;SDS011;30778;53.574;7.770;2022-08-20T02:13:13;5.65;;;5.05;;
45039;SDS011;30778;53.574;7.770;2022-08-20T02:15:39;9.15;;;6.20;;
45039;SDS011;30778;53.574;7.770;2022-08-20T02:18:05;11.77;;;6.55;;
45039;SDS011;30778;53.574;7.770;2022-08-20T02:20:35;8.02;;;7.03;;
45039;SDS011;30778;53.574;7.770;2022-08-20T02:23:02;11.98;;;8.55;;
45039;SDS011;30778;53.574;7.770;2022-08-20T02:25:29;8.15;;;6.80;;
45039;SDS011;30778;53.574;7.770;2022-08-20T02:27:57;11.63;;;7.53;;
45039;SDS011;30778;53.574;7.770;2022-08-20T02:30:29;11.88;;;7.70;;
45039;SDS011;30778;53.574;7.770;2022-08-20T02:32:58;10.77;;;7.90;;
45039;SDS011;30778;53.574;7.770;2022-08-20T02:35:25;14.55;;;8.55;;
45039;SDS011;30778;53.574;7.770;2022-08-20T02:37:51;10.27;;;7.40;;
45039;SDS011;30778;53.574;7.770;2022-08-20T02:40:18;10.80;;;7.28;;
45039;SDS011;30778;53.574;7.770;2022-08-20T02:42:46;9.45;;;6.70;;
45039;SDS011;30778;53.574;7.770;2022-08-20T02:45:14;11.43;;;6.97;;
45039;SDS011;30778;53.574;7.770;2022-08-20T02:47:42;8.30;;;6.95;;
45039;SDS011;30778;53.574;7.770;2022-08-20T02:50:14;7.95;;;4.88;;
45039;SDS011;30778;53.574;7.770;2022-08-20T02:52:41;9.25;;;6.43;;
45039;SDS011;30778;53.574;7.770;2022-08-20T02:55:07;12.35;;;6.85;;
45039;SDS011;30778;53.574;7.770;2022-08-20T02:57:34;10.07;;;6.28;;
45039;SDS011;30778;53.574;7.770;2022-08-20T02:59:59;7.35;;;5.20;;
45039;SDS011;30778;53.574;7.770;2022-08-20T03:02:26;10.20;;;6.43;;
45039;SDS011;30778;53.574;7.770;2022-08-20T03:04:52;6.70;;;5.10;;
45039;SDS011;30778;53.574;7.770;2022-08-20T03:07:17;7.03;;;6.00;;
45039;SDS011;30778;53.574;7.770;2022-08-20T03:09:43;8.45;;;6.03;;
45039;SDS011;30778;53.574;7.770;2022-08-20T03:12:08;9.43;;;6.20;;
45039;SDS011;30778;53.574;7.770;2022-08-20T03:14:34;8.13;;;6.53;;
45039;SDS011;30778;53.574;7.770;2022-08-20T03:17:00;7.20;;;6.43;;
45039;SDS011;30778;53.574;7.770;2022-08-20T03:19:26;7.20;;;5.72;;
45039;SDS011;30778;53.574;7.770;2022-08-20T03:21:52;8.98;;;6.38;;
45039;SDS011;30778;53.574;7.770;2022-08-20T03:24:17;13.20;;;6.40;;
45039;SDS011;30778;53.574;7.770;2022-08-20T03:26:43;6.90;;;5.57;;
45039;SDS011;30778;53.574;7.770;2022-08-20T03:29:09;8.85;;;6.53;;
45039;SDS011;30778;53.574;7.770;2022-08-20T03:31:35;7.45;;;4.95;;
45039;SDS011;30778;53.574;7.770;2022-08-20T03:34:01;9.07;;;5.32;;
45039;SDS011;30778;53.574;7.770;2022-08-20T03:36:27;8.07;;;4.65;;
45039;SDS011;30778;53.574;7.770;2022-08-20T03:38:54;6.40;;;4.55;;
45039;SDS011;30778;53.574;7.770;2022-08-20T03:41:21;7.05;;;4.97;;
45039;SDS011;30778;53.574;7.770;2022-08-20T03:43:46;9.10;;;4.70;;
45039;SDS011;30778;53.574;7.770;2022-08-20T03:46:12;8.77;;;5.07;;
45039;SDS011;30778;53.574;7.770;2022-08-20T03:48:37;8.07;;;4.72;;
45039;SDS011;30778;53.574;7.770;2022-08-20T03:51:03;9.20;;;4.28;;
45039;SDS011;30778;53.574;7.770;2022-08-20T03:53:28;6.80;;;5.05;;
45039;SDS011;30778;53.574;7.770;2022-08-20T03:55:58;10.93;;;5.07;;
45039;SDS011;30778;53.574;7.770;2022-08-20T03:58:28;6.25;;;3.55;;
45039;SDS011;30778;53.574;7.770;2022-08-20T04:00:56;8.35;;;4.65;;
45039;SDS011;30778;53.574;7.770;2022-08-20T04:03:22;5.25;;;3.80;;
45039;SDS011;30778;53.574;7.770;2022-08-20T04:05:48;6.00;;;3.95;;
45039;SDS011;30778;53.574;7.770;2022-08-20T04:08:16;14.20;;;4.47;;
45039;SDS011;30778;53.574;7.770;2022-08-20T04:10:44;4.15;;;3.35;;
45039;SDS011;30778;53.574;7.770;2022-08-20T04:13:11;4.95;;;3.53;;
45039;SDS011;30778;53.574;7.770;2022-08-20T04:15:38;5.38;;;3.90;;
45039;SDS011;30778;53.574;7.770;2022-08-20T04:18:04;10.13;;;3.75;;
45039;SDS011;30778;53.574;7.770;2022-08-20T04:20:33;8.25;;;3.90;;
45039;SDS011;30778;53.574;7.770;2022-08-20T04:23:00;6.45;;;3.15;;
45039;SDS011;30778;53.574;7.770;2022-08-20T04:25:26;4.43;;;3.15;;
45039;SDS011;30778;53.574;7.770;2022-08-20T04:27:53;4.18;;;2.78;;
45039;SDS011;30778;53.574;7.770;2022-08-20T04:30:19;7.78;;;2.88;;
45039;SDS011;30778;53.574;7.770;2022-08-20T04:32:47;10.35;;;3.47;;
45039;SDS011;30778;53.574;7.770;2022-08-20T04:35:14;5.93;;;2.33;;
45039;SDS011;30778;53.574;7.770;2022-08-20T04:37:42;8.95;;;3.65;;
45039;SDS011;30778;53.574;7.770;2022-08-20T04:40:16;8.43;;;3.03;;
45039;SDS011;30778;53.574;7.770;2022-08-20T04:43:02;5.28;;;2.63;;
45039;SDS011;30778;53.574;7.770;2022-08-20T04:45:31;6.45;;;2.05;;
45039;SDS011;30778;53.574;7.770;2022-08-20T04:48:00;5.03;;;2.10;;
45039;SDS011;30778;53.574;7.770;2022-08-20T04:50:28;6.17;;;2.00;;
45039;SDS011;30778;53.574;7.770;2022-08-20T04:52:58;5.90;;;1.48;;
45039;SDS011;30778;53.574;7.770;2022-08-20T04:55:23;8.05;;;1.98;;
45039;SDS011;30778;53.574;7.770;2022-08-20T04:57:49;6.28;;;2.53;;
45039;SDS011;30778;53.574;7.770;2022-08-20T05:00:15;8.45;;;2.10;;
45039;SDS011;30778;53.574;7.770;2022-08-20T05:02:41;5.78;;;2.03;;
45039;SDS011;30778;53.574;7.770;2022-08-20T05:05:08;9.07;;;1.98;;
45039;SDS011;30778;53.574;7.770;2022-08-20T05:07:38;5.68;;;1.80;;
45039;SDS011;30778;53.574;7.770;2022-08-20T05:10:11;4.78;;;1.70;;
45039;SDS011;30778;53.574;7.770;2022-08-20T05:12:39;5.10;;;1.85;;
45039;SDS011;30778;53.574;7.770;2022-08-20T05:15:06;10.50;;;1.58;;
45039;SDS011;30778;53.574;7.770;2022-08-20T05:17:36;3.67;;;1.00;;
45039;SDS011;30778;53.574;7.770;2022-08-20T05:20:02;6.35;;;1.60;;
45039;SDS011;30778;53.574;7.770;2022-08-20T05:22:30;2.92;;;1.20;;
45039;SDS011;30778;53.574;7.770;2022-08-20T05:24:55;6.95;;;1.35;;
45039;SDS011;30778;53.574;7.770;2022-08-20T05:27:23;11.70;;;1.20;;
45039;SDS011;30778;53.574;7.770;2022-08-20T05:29:53;4.22;;;0.95;;
45039;SDS011;30778;53.574;7.770;2022-08-20T05:32:25;5.90;;;1.35;;
45039;SDS011;30778;53.574;7.770;2022-08-20T05:34:51;12.20;;;1.13;;
45039;SDS011;30778;53.574;7.770;2022-08-20T05:37:18;6.00;;;0.63;;
45039;SDS011;30778;53.574;7.770;2022-08-20T05:39:44;10.02;;;1.00;;
45039;SDS011;30778;53.574;7.770;2022-08-20T05:42:10;8.13;;;0.70;;
45039;SDS011;30778;53.574;7.770;2022-08-20T05:44:36;3.08;;;0.80;;
45039;SDS011;30778;53.574;7.770;2022-08-20T05:47:02;0.90;;;0.30;;
45039;SDS011;30778;53.574;7.770;2022-08-20T05:49:29;3.60;;;0.40;;
45039;SDS011;30778;53.574;7.770;2022-08-20T05:51:54;4.43;;;0.75;;
45039;SDS011;30778;53.574;7.770;2022-08-20T05:54:21;4.72;;;0.90;;
45039;SDS011;30778;53.574;7.770;2022-08-20T05:56:48;1.92;;;0.60;;
45039;SDS011;30778;53.574;7.770;2022-08-20T05:59:14;6.63;;;0.65;;
45039;SDS011;30778;53.574;7.770;2022-08-20T06:01:40;4.82;;;0.47;;
45039;SDS011;30778;53.574;7.770;2022-08-20T06:04:07;4.72;;;0.30;;
45039;SDS011;30778;53.574;7.770;2022-08-20T06:06:51;4.40;;;0.30;;
45039;SDS011;30778;53.574;7.770;2022-08-20T06:09:19;8.30;;;0.60;;
45039;SDS011;30778;53.574;7.770;2022-08-20T06:11:46;2.20;;;0.30;;
45039;SDS011;30778;53.574;7.770;2022-08-20T06:14:11;3.00;;;0.50;;
45039;SDS011;30778;53.574;7.770;2022-08-20T06:16:37;2.67;;;0.40;;
45039;SDS011;30778;53.574;7.770;2022-08-20T06:19:03;3.42;;;0.30;;
45039;SDS011;30778;53.574;7.770;2022-08-20T06:21:29;2.28;;;0.20;;
45039;SDS011;30778;53.574;7.770;2022-08-20T06:23:54;8.13;;;0.88;;
45039;SDS011;30778;53.574;7.770;2022-08-20T06:26:20;4.13;;;0.43;;
45039;SDS011;30778;53.574;7.770;2022-08-20T06:28:46;5.47;;;0.32;;
45039;SDS011;30778;53.574;7.770;2022-08-20T06:31:11;2.75;;;0.38;;
45039;SDS011;30778;53.574;7.770;2022-08-20T06:33:37;7.10;;;1.13;;
45039;SDS011;30778;53.574;7.770;2022-08-20T06:36:02;2.70;;;0.30;;
45039;SDS011;30778;53.574;7.770;2022-08-20T06:38:28;4.70;;;0.45;;
45039;SDS011;30778;53.574;7.770;2022-08-20T06:40:56;3.50;;;0.25;;
45039;SDS011;30778;53.574;7.770;2022-08-20T06:43:22;5.32;;;0.50;;
45039;SDS011;30778;53.574;7.770;2022-08-20T06:45:47;4.60;;;0.28;;
45039;SDS011;30778;53.574;7.770;2022-08-20T06:48:13;5.80;;;0.50;;
45039;SDS011;30778;53.574;7.770;2022-08-20T06:50:40;5.95;;;0.28;;
45039;SDS011;30778;53.574;7.770;2022-08-20T06:53:08;4.70;;;0.35;;
45039;SDS011;30778;53.574;7.770;2022-08-20T06:55:38;6.88;;;0.40;;
45039;SDS011;30778;53.574;7.770;2022-08-20T06:58:08;6.72;;;0.60;;
45039;SDS011;30778;53.574;7.770;2022-08-20T07:00:35;2.85;;;0.50;;
45039;SDS011;30778;53.574;7.770;2022-08-20T07:03:02;3.70;;;0.40;;
45039;SDS011;30778;53.574;7.770;2022-08-20T07:05:30;2.28;;;0.40;;
45039;SDS011;30778;53.574;7.770;2022-08-20T07:07:58;4.38;;;0.30;;
45039;SDS011;30778;53.574;7.770;2022-08-20T07:10:25;5.15;;;0.40;;
45039;SDS011;30778;53.574;7.770;2022-08-20T07:12:53;3.70;;;0.88;;
45039;SDS011;30778;53.574;7.770;2022-08-20T07:15:20;6.75;;;0.22;;
45039;SDS011;30778;53.574;7.770;2022-08-20T07:17:47;3.65;;;0.30;;
45039;SDS011;30778;53.574;7.770;2022-08-20T07:20:14;4.97;;;0.40;;
45039;SDS011;30778;53.574;7.770;2022-08-20T07:22:40;3.92;;;0.43;;
45039;SDS011;30778;53.574;7.770;2022-08-20T07:25:08;2.47;;;0.40;;
45039;SDS011;30778;53.574;7.770;2022-08-20T07:27:36;3.72;;;0.25;;
45039;SDS011;30778;53.574;7.770;2022-08-20T07:30:03;7.10;;;0.32;;
45039;SDS011;30778;53.574;7.770;2022-08-20T07:32:48;5.40;;;0.57;;
45039;SDS011;30778;53.574;7.770;2022-08-20T07:35:14;2.97;;;0.70;;
45039;SDS011;30778;53.574;7.770;2022-08-20T07:37:42;4.55;;;0.55;;
45039;SDS011;30778;53.574;7.770;2022-08-20T07:40:14;6.10;;;0.68;;
45039;SDS011;30778;53.574;7.770;2022-08-20T07:42:42;1.70;;;0.17;;
45039;SDS011;30778;53.574;7.770;2022-08-20T07:45:09;4.45;;;0.20;;
45039;SDS011;30778;53.574;7.770;2022-08-20T07:47:37;4.57;;;0.30;;
45039;SDS011;30778;53.574;7.770;2022-08-20T07:50:04;2.38;;;0.40;;
45039;SDS011;30778;53.574;7.770;2022-08-20T07:52:31;6.13;;;0.15;;
45039;SDS011;30778;53.574;7.770;2022-08-20T07:55:01;3.45;;;0.20;;
45039;SDS011;30778;53.574;7.770;2022-08-20T07:57:31;1.73;;;0.10;;
45039;SDS011;30778;53.574;7.770;2022-08-20T07:59:57;4.10;;;0.68;;
45039;SDS011;30778;53.574;7.770;2022-08-20T08:02:25;2.85;;;0.20;;
45039;SDS011;30778;53.574;7.770;2022-08-20T08:04:52;2.25;;;0.47;;
45039;SDS011;30778;53.574;7.770;2022-08-20T08:07:19;5.47;;;0.52;;
45039;SDS011;30778;53.574;7.770;2022-08-20T08:09:46;5.57;;;0.30;;
45039;SDS011;30778;53.574;7.770;2022-08-20T08:12:13;5.78;;;0.77;;
45039;SDS011;30778;53.574;7.770;2022-08-20T08:14:39;5.10;;;0.40;;
45039;SDS011;30778;53.574;7.770;2022-08-20T08:17:07;2.13;;;0.38;;
45039;SDS011;30778;53.574;7.770;2022-08-20T08:19:39;6.25;;;0.80;;
45039;SDS011;30778;53.574;7.770;2022-08-20T08:22:09;3.17;;;0.10;;
45039;SDS011;30778;53.574;7.770;2022-08-20T08:24:37;4.35;;;0.30;;
45039;SDS011;30778;53.574;7.770;2022-08-20T08:27:05;3.33;;;0.20;;
45039;SDS011;30778;53.574;7.770;2022-08-20T08:29:33;2.45;;;0.17;;
45039;SDS011;30778;53.574;7.770;2022-08-20T08:32:00;3.58;;;0.15;;
45039;SDS011;30778;53.574;7.770;2022-08-20T08:34:28;3.78;;;0.20;;
45039;SDS011;30778;53.574;7.770;2022-08-20T08:36:55;4.03;;;0.30;;
45039;SDS011;30778;53.574;7.770;2022-08-20T08:39:22;1.20;;;0.22;;
45039;SDS011;30778;53.574;7.770;2022-08-20T08:41:49;4.28;;;0.32;;
45039;SDS011;30778;53.574;7.770;2022-08-20T08:44:18;5.35;;;0.10;;
45039;SDS011;30778;53.574;7.770;2022-08-20T08:46:53;7.68;;;0.60;;
45039;SDS011;30778;53.574;7.770;2022-08-20T08:49:21;3.85;;;0.80;;
45039;SDS011;30778;53.574;7.770;2022-08-20T08:51:52;2.67;;;0.20;;
45039;SDS011;30778;53.574;7.770;2022-08-20T08:54:23;2.15;;;0.20;;
45039;SDS011;30778;53.574;7.770;2022-08-20T08:56:51;7.05;;;0.20;;
45039;SDS011;30778;53.574;7.770;2022-08-20T08:59:18;2.55;;;0.30;;
45039;SDS011;30778;53.574;7.770;2022-08-20T09:01:46;2.03;;;0.45;;
45039;SDS011;30778;53.574;7.770;2022-08-20T09:04:18;4.28;;;0.20;;
45039;SDS011;30778;53.574;7.770;2022-08-20T09:06:49;2.72;;;0.20;;
45039;SDS011;30778;53.574;7.770;2022-08-20T09:09:24;2.28;;;0.20;;
45039;SDS011;30778;53.574;7.770;2022-08-20T09:11:54;3.25;;;0.20;;
45039;SDS011;30778;53.574;7.770;2022-08-20T09:14:26;2.70;;;0.20;;
45039;SDS011;30778;53.574;7.770;2022-08-20T09:16:52;1.67;;;0.25;;
45039;SDS011;30778;53.574;7.770;2022-08-20T09:19:17;5.18;;;0.30;;
45039;SDS011;30778;53.574;7.770;2022-08-20T09:21:43;2.60;;;0.20;;
45039;SDS011;30778;53.574;7.770;2022-08-20T09:24:08;3.95;;;0.50;;
45039;SDS011;30778;53.574;7.770;2022-08-20T09:26:34;3.63;;;0.20;;
45039;SDS011;30778;53.574;7.770;2022-08-20T09:28:59;2.55;;;0.75;;
45039;SDS011;30778;53.574;7.770;2022-08-20T09:31:25;3.97;;;0.80;;
45039;SDS011;30778;53.574;7.770;2022-08-20T09:33:51;4.95;;;0.30;;
45039;SDS011;30778;53.574;7.770;2022-08-20T09:36:16;2.47;;;0.30;;
45039;SDS011;30778;53.574;7.770;2022-08-20T09:38:42;2.28;;;0.10;;
45039;SDS011;30778;53.574;7.770;2022-08-20T09:41:07;3.47;;;0.30;;
45039;SDS011;30778;53.574;7.770;2022-08-20T09:43:33;5.80;;;0.10;;
45039;SDS011;30778;53.574;7.770;2022-08-20T09:45:58;4.20;;;0.32;;
45039;SDS011;30778;53.574;7.770;2022-08-20T09:48:24;6.28;;;0.85;;
45039;SDS011;30778;53.574;7.770;2022-08-20T09:50:49;3.17;;;0.30;;
45039;SDS011;30778;53.574;7.770;2022-08-20T09:53:15;4.38;;;0.20;;
45039;SDS011;30778;53.574;7.770;2022-08-20T09:55:44;2.58;;;0.10;;
45039;SDS011;30778;53.574;7.770;2022-08-20T09:58:16;1.95;;;0.20;;
45039;SDS011;30778;53.574;7.770;2022-08-20T10:00:43;3.13;;;0.38;;
45039;SDS011;30778;53.574;7.770;2022-08-20T10:03:08;1.52;;;0.10;;
45039;SDS011;30778;53.574;7.770;2022-08-20T10:05:34;4.50;;;0.30;;
45039;SDS011;30778;53.574;7.770;2022-08-20T10:07:59;2.92;;;0.40;;
45039;SDS011;30778;53.574;7.770;2022-08-20T10:10:29;4.90;;;0.45;;
45039;SDS011;30778;53.574;7.770;2022-08-20T10:12:55;2.50;;;0.25;;
45039;SDS011;30778;53.574;7.770;2022-08-20T10:15:20;3.63;;;0.20;;
45039;SDS011;30778;53.574;7.770;2022-08-20T10:17:46;1.98;;;0.20;;
45039;SDS011;30778;53.574;7.770;2022-08-20T10:20:11;4.30;;;0.43;;
45039;SDS011;30778;53.574;7.770;2022-08-20T10:22:38;3.97;;;0.40;;
45039;SDS011;30778;53.574;7.770;2022-08-20T10:25:04;4.38;;;0.20;;
45039;SDS011;30778;53.574;7.770;2022-08-20T10:27:31;2.00;;;0.10;;
45039;SDS011;30778;53.574;7.770;2022-08-20T10:29:57;1.98;;;0.20;;
45039;SDS011;30778;53.574;7.770;2022-08-20T10:32:22;6.57;;;0.32;;
45039;SDS011;30778;53.574;7.770;2022-08-20T10:34:48;2.28;;;0.40;;
45039;SDS011;30778;53.574;7.770;2022-08-20T10:37:14;1.30;;;0.20;;
45039;SDS011;30778;53.574;7.770;2022-08-20T10:39:41;2.28;;;0.10;;
45039;SDS011;30778;53.574;7.770;2022-08-20T10:42:07;3.65;;;0.10;;
45039;SDS011;30778;53.574;7.770;2022-08-20T10:44:33;2.95;;;0.88;;
45039;SDS011;30778;53.574;7.770;2022-08-20T10:47:11;2.10;;;0.13;;
45039;SDS011;30778;53.574;7.770;2022-08-20T10:50:04;3.25;;;0.20;;
45039;SDS011;30778;53.574;7.770;2022-08-20T10:52:32;1.13;;;0.15;;
45039;SDS011;30778;53.574;7.770;2022-08-20T10:54:57;2.63;;;0.20;;
45039;SDS011;30778;53.574;7.770;2022-08-20T10:57:23;2.05;;;0.20;;
45039;SDS011;30778;53.574;7.770;2022-08-20T10:59:52;1.83;;;0.20;;
45039;SDS011;30778;53.574;7.770;2022-08-20T11:02:20;2.05;;;0.20;;
45039;SDS011;30778;53.574;7.770;2022-08-20T11:04:46;5.95;;;0.20;;
45039;SDS011;30778;53.574;7.770;2022-08-20T11:07:23;1.20;;;0.32;;
45039;SDS011;30778;53.574;7.770;2022-08-20T11:09:53;2.92;;;0.30;;
45039;SDS011;30778;53.574;7.770;2022-08-20T11:12:20;7.00;;;2.33;;
45039;SDS011;30778;53.574;7.770;2022-08-20T11:14:46;7.93;;;1.10;;
45039;SDS011;30778;53.574;7.770;2022-08-20T11:17:19;2.90;;;0.63;;
45039;SDS011;30778;53.574;7.770;2022-08-20T11:19:47;3.70;;;0.30;;
45039;SDS011;30778;53.574;7.770;2022-08-20T11:22:12;2.30;;;0.20;;
45039;SDS011;30778;53.574;7.770;2022-08-20T11:24:38;2.92;;;0.40;;
45039;SDS011;30778;53.574;7.770;2022-08-20T11:27:06;1.92;;;0.20;;
45039;SDS011;30778;53.574;7.770;2022-08-20T11:29:34;5.25;;;1.65;;
45039;SDS011;30778;53.574;7.770;2022-08-20T11:32:00;2.03;;;0.77;;
45039;SDS011;30778;53.574;7.770;2022-08-20T11:34:25;3.47;;;1.67;;
45039;SDS011;30778;53.574;7.770;2022-08-20T11:36:51;3.33;;;0.32;;
45039;SDS011;30778;53.574;7.770;2022-08-20T11:39:17;1.20;;;0.25;;
45039;SDS011;30778;53.574;7.770;2022-08-20T11:41:42;4.47;;;0.25;;
45039;SDS011;30778;53.574;7.770;2022-08-20T11:44:08;1.45;;;0.10;;
45039;SDS011;30778;53.574;7.770;2022-08-20T11:46:33;4.03;;;0.43;;
45039;SDS011;30778;53.574;7.770;2022-08-20T11:48:59;2.38;;;0.60;;
45039;SDS011;30778;53.574;7.770;2022-08-20T11:51:25;2.00;;;0.50;;
45039;SDS011;30778;53.574;7.770;2022-08-20T11:53:50;4.18;;;0.32;;
45039;SDS011;30778;53.574;7.770;2022-08-20T11:56:16;2.80;;;0.50;;
45039;SDS011;30778;53.574;7.770;2022-08-20T11:58:43;2.20;;;0.20;;
45039;SDS011;30778;53.574;7.770;2022-08-20T12:01:10;2.42;;;0.45;;
45039;SDS011;30778;53.574;7.770;2022-08-20T12:03:36;3.58;;;0.40;;
45039;SDS011;30778;53.574;7.770;2022-08-20T12:06:01;3.10;;;0.22;;
45039;SDS011;30778;53.574;7.770;2022-08-20T12:08:27;4.05;;;0.80;;
45039;SDS011;30778;53.574;7.770;2022-08-20T12:10:58;2.65;;;0.32;;
45039;SDS011;30778;53.574;7.770;2022-08-20T12:13:26;4.05;;;0.57;;
45039;SDS011;30778;53.574;7.770;2022-08-20T12:15:53;2.78;;;0.65;;
45039;SDS011;30778;53.574;7.770;2022-08-20T12:18:19;0.95;;;0.10;;
45039;SDS011;30778;53.574;7.770;2022-08-20T12:20:44;3.25;;;0.40;;
45039;SDS011;30778;53.574;7.770;2022-08-20T12:23:10;3.03;;;0.20;;
45039;SDS011;30778;53.574;7.770;2022-08-20T12:25:35;3.28;;;0.20;;
45039;SDS011;30778;53.574;7.770;2022-08-20T12:28:01;2.33;;;0.30;;
45039;SDS011;30778;53.574;7.770;2022-08-20T12:30:29;5.00;;;0.20;;
45039;SDS011;30778;53.574;7.770;2022-08-20T12:32:55;4.03;;;0.57;;
45039;SDS011;30778;53.574;7.770;2022-08-20T12:35:22;3.63;;;0.30;;
45039;SDS011;30778;53.574;7.770;2022-08-20T12:37:47;2.45;;;0.68;;
45039;SDS011;30778;53.574;7.770;2022-08-20T12:40:15;4.38;;;0.20;;
45039;SDS011;30778;53.574;7.770;2022-08-20T12:42:46;1.92;;;0.28;;
45039;SDS011;30778;53.574;7.770;2022-08-20T12:45:12;2.78;;;0.20;;
45039;SDS011;30778;53.574;7.770;2022-08-20T12:47:39;2.47;;;0.43;;
45039;SDS011;30778;53.574;7.770;2022-08-20T12:50:08;5.10;;;0.20;;
45039;SDS011;30778;53.574;7.770;2022-08-20T12:52:42;3.45;;;0.73;;
45039;SDS011;30778;53.574;7.770;2022-08-20T12:55:09;4.10;;;0.55;;
45039;SDS011;30778;53.574;7.770;2022-08-20T12:57:37;6.88;;;0.32;;
45039;SDS011;30778;53.574;7.770;2022-08-20T13:00:10;2.05;;;0.20;;
45039;SDS011;30778;53.574;7.770;2022-08-20T13:02:38;4.05;;;0.30;;
45039;SDS011;30778;53.574;7.770;2022-08-20T13:05:05;6.18;;;0.30;;
45039;SDS011;30778;53.574;7.770;2022-08-20T13:07:33;1.88;;;0.20;;
45039;SDS011;30778;53.574;7.770;2022-08-20T13:09:59;7.50;;;0.30;;
45039;SDS011;30778;53.574;7.770;2022-08-20T13:12:24;3.10;;;0.22;;
45039;SDS011;30778;53.574;7.770;2022-08-20T13:14:51;2.35;;;0.77;;
45039;SDS011;30778;53.574;7.770;2022-08-20T13:17:17;4.35;;;0.30;;
45039;SDS011;30778;53.574;7.770;2022-08-20T13:19:43;5.85;;;0.28;;
45039;SDS011;30778;53.574;7.770;2022-08-20T13:22:10;3.50;;;0.50;;
45039;SDS011;30778;53.574;7.770;2022-08-20T13:24:36;4.38;;;0.22;;
45039;SDS011;30778;53.574;7.770;2022-08-20T13:29:47;3.88;;;0.35;;
45039;SDS011;30778;53.574;7.770;2022-08-20T13:32:14;5.18;;;0.30;;
45039;SDS011;30778;53.574;7.770;2022-08-20T13:34:41;4.63;;;0.75;;
45039;SDS011;30778;53.574;7.770;2022-08-20T13:37:11;4.72;;;0.40;;
45039;SDS011;30778;53.574;7.770;2022-08-20T13:39:50;5.10;;;0.60;;
45039;SDS011;30778;53.574;7.770;2022-08-20T13:42:15;3.22;;;0.20;;
45039;SDS011;30778;53.574;7.770;2022-08-20T13:44:41;4.47;;;0.38;;
45039;SDS011;30778;53.574;7.770;2022-08-20T13:50:11;4.32;;;1.27;;
45039;SDS011;30778;53.574;7.770;2022-08-20T13:52:39;3.70;;;0.20;;
45039;SDS011;30778;53.574;7.770;2022-08-20T13:55:06;1.50;;;0.20;;
45039;SDS011;30778;53.574;7.770;2022-08-20T13:57:33;1.80;;;0.28;;
45039;SDS011;30778;53.574;7.770;2022-08-20T13:59:59;1.33;;;0.20;;
45039;SDS011;30778;53.574;7.770;2022-08-20T14:02:25;2.55;;;0.55;;
45039;SDS011;30778;53.574;7.770;2022-08-20T14:04:52;4.18;;;0.38;;
45039;SDS011;30778;53.574;7.770;2022-08-20T14:07:19;5.65;;;0.25;;
45039;SDS011;30778;53.574;7.770;2022-08-20T14:09:51;2.80;;;0.63;;
45039;SDS011;30778;53.574;7.770;2022-08-20T14:14:47;4.20;;;0.20;;
45039;SDS011;30778;53.574;7.770;2022-08-20T14:17:15;1.55;;;0.35;;
45039;SDS011;30778;53.574;7.770;2022-08-20T14:19:52;4.25;;;0.30;;
45039;SDS011;30778;53.574;7.770;2022-08-20T14:22:20;2.05;;;0.30;;
45039;SDS011;30778;53.574;7.770;2022-08-20T14:24:46;1.60;;;0.30;;
45039;SDS011;30778;53.574;7.770;2022-08-20T14:27:13;2.78;;;1.05;;
45039;SDS011;30778;53.574;7.770;2022-08-20T14:29:41;2.60;;;0.45;;
45039;SDS011;30778;53.574;7.770;2022-08-20T14:32:08;2.08;;;0.57;;
45039;SDS011;30778;53.574;7.770;2022-08-20T14:34:34;5.00;;;0.40;;
45039;SDS011;30778;53.574;7.770;2022-08-20T14:39:45;5.07;;;0.43;;
45039;SDS011;30778;53.574;7.770;2022-08-20T14:42:13;1.48;;;0.47;;
45039;SDS011;30778;53.574;7.770;2022-08-20T14:44:39;5.78;;;0.22;;
45039;SDS011;30778;53.574;7.770;2022-08-20T14:47:15;3.95;;;0.43;;
45039;SDS011;30778;53.574;7.770;2022-08-20T14:49:49;5.25;;;0.63;;
45039;SDS011;30778;53.574;7.770;2022-08-20T14:52:17;4.93;;;0.52;;
45039;SDS011;30778;53.574;7.770;2022-08-20T14:54:44;7.13;;;0.38;;
45039;SDS011;30778;53.574;7.770;2022-08-20T14:57:11;5.13;;;0.70;;
45039;SDS011;30778;53.574;7.770;2022-08-20T14:59:37;2.17;;;0.30;;